Time;durP1;ratioP1;P1;durP2;ratioP2;P2;SDS_P1;SDS_P2;PMS_P1;PMS_P2;Temp;Humidity;BMP_temperature;BMP_pressure;BME280_temperature;BME280_humidity;BME280_pressure;Samples;Min_cycle;Max_cycle;Signal;HPM_P1;HPM_P2
2023/03/08 07:59:43;;;;;;;7.00;1.90;;;;;;;8.25;40.49;97628.10;102597;1296;599957;-75
2023/03/08 08:02:31;;;;;;;6.00;1.80;;;;;;;9.17;39.06;97630.44;105141;1267;59386;-76
2023/03/08 08:05:21;;;;;;;7.20;1.90;;;;;;;10.25;37.89;97625.59;105040;1267;61786;-74
2023/03/08 08:08:12;;;;;;;6.80;1.70;;;;;;;10.95;34.77;97628.54;104900;1269;70974;-76
2023/03/08 08:11:00;;;;;;;6.80;1.60;;;;;;;11.06;33.27;97623.52;104932;1270;67603;-78
2023/03/08 08:13:49;;;;;;;7.90;1.60;;;;;;;11.69;33.40;97639.09;104856;1267;234240;-76
2023/03/08 08:16:36;;;;;;;8.50;2.40;;;;;;;11.44;32.67;97647.01;105107;1267;59456;-75
2023/03/08 08:19:25;;;;;;;7.60;2.00;;;;;;;10.16;34.33;97659.23;105219;1263;60865;-78
2023/03/08 08:22:14;;;;;;;6.00;1.50;;;;;;;9.68;35.36;97658.92;105078;1263;72010;-76
2023/03/08 08:25:06;;;;;;;6.90;1.40;;;;;;;9.12;36.20;97673.20;105170;1267;68658;-76
2023/03/08 08:27:54;;;;;;;6.30;1.70;;;;;;;7.78;36.85;97676.50;105089;1269;73253;-79
2023/03/08 08:30:42;;;;;;;6.30;1.60;;;;;;;7.17;38.62;97686.38;105252;1267;59275;-79
2023/03/08 08:33:34;;;;;;;5.80;1.80;;;;;;;6.19;39.48;97704.38;105354;1266;59263;-76
2023/03/08 08:36:22;;;;;;;6.00;1.50;;;;;;;6.44;39.33;97721.45;105388;1268;70534;-78
2023/03/08 08:39:11;;;;;;;6.00;1.50;;;;;;;5.68;40.00;97722.60;105191;1267;68821;-78
2023/03/08 08:41:59;;;;;;;6.60;1.30;;;;;;;4.85;41.13;97724.10;105427;1260;72469;-77
2023/03/08 08:44:47;;;;;;;6.40;1.40;;;;;;;4.65;41.84;97727.82;105423;1262;59244;-78
2023/03/08 08:47:35;;;;;;;8.00;1.90;;;;;;;5.55;40.45;97735.10;105517;1260;60105;-76
2023/03/08 08:50:24;;;;;;;6.90;1.40;;;;;;;6.57;38.77;97746.67;105709;1259;69891;-77
2023/03/08 08:53:12;;;;;;;6.70;1.50;;;;;;;5.85;39.30;97750.93;105403;1259;69425;-76
2023/03/08 08:56:22;;;;;;;7.00;1.70;;;;;;;5.55;40.48;97753.52;105470;1259;71219;-77
2023/03/08 08:59:15;;;;;;;6.60;1.70;;;;;;;6.56;39.83;97758.47;105714;1259;59236;-74
2023/03/08 09:02:04;;;;;;;7.30;1.50;;;;;;;6.94;38.11;97759.42;105427;1259;60662;-79
2023/03/08 09:04:53;;;;;;;6.20;1.80;;;;;;;7.98;36.75;97753.83;105352;1262;70160;-79
2023/03/08 09:07:41;;;;;;;7.10;2.10;;;;;;;8.80;35.40;97751.14;105529;1259;66414;-81
2023/03/08 09:10:33;;;;;;;6.80;1.80;;;;;;;9.68;34.49;97750.80;105408;1259;74543;-80
2023/03/08 09:13:20;;;;;;;5.30;1.40;;;;;;;10.55;30.83;97756.42;105544;1259;59264;-79
2023/03/08 09:16:22;;;;;;;5.40;1.80;;;;;;;10.62;30.79;97762.98;105454;1263;60647;-80
2023/03/08 09:19:11;;;;;;;6.50;2.00;;;;;;;11.39;29.97;97749.71;105588;1259;71301;-78
2023/03/08 09:21:59;;;;;;;5.80;1.40;;;;;;;11.63;28.79;97767.23;105389;1259;67650;-79
2023/03/08 09:24:50;;;;;;;6.20;1.80;;;;;;;11.03;28.27;97775.73;105403;1259;72582;-79
2023/03/08 09:27:40;;;;;;;6.80;1.60;;;;;;;11.33;28.67;97786.73;105366;1259;59337;-78
2023/03/08 09:30:29;;;;;;;6.00;1.60;;;;;;;10.84;28.08;97781.10;105319;1262;59747;-80
2023/03/08 09:33:20;;;;;;;7.50;1.60;;;;;;;11.41;27.57;97787.23;105404;1263;71412;-79
2023/03/08 09:36:09;;;;;;;6.80;1.50;;;;;;;11.26;27.31;97791.16;105357;1259;67435;-79
2023/03/08 09:38:57;;;;;;;5.90;1.70;;;;;;;11.28;27.52;97795.73;105342;1259;72900;-78
2023/03/08 09:41:56;;;;;;;5.70;1.50;;;;;;;10.61;27.87;97796.41;105300;1260;59265;-78
2023/03/08 09:45:17;;;;;;;6.70;1.70;;;;;;;9.33;29.35;97813.79;105353;1260;60780;-79
2023/03/08 09:48:22;;;;;;;6.50;2.00;;;;;;;8.13;32.95;97816.10;105636;1264;72223;-78
2023/03/08 09:51:12;;;;;;;7.30;2.30;;;;;;;9.77;31.82;97816.55;105302;1259;68466;-80
2023/03/08 09:54:16;;;;;;;7.00;2.30;;;;;;;10.98;30.04;97811.23;105303;1259;72837;-78
2023/03/08 09:57:11;;;;;;;7.50;1.80;;;;;;;12.52;28.60;97805.08;105484;1259;59248;-79
2023/03/08 10:00:07;;;;;;;7.10;2.20;;;;;;;13.89;26.39;97800.58;105545;1259;60431;-77
2023/03/08 10:03:36;;;;;;;9.20;2.80;;;;;;;14.91;23.87;97789.17;105564;1258;71651;-79
2023/03/08 10:06:54;;;;;;;7.30;1.80;;;;;;;14.96;22.90;97796.59;106318;1261;67998;-80
2023/03/08 10:09:56;;;;;;;6.30;1.90;;;;;;;13.73;24.46;97810.05;105382;1259;72423;-79
2023/03/08 10:13:26;;;;;;;6.70;1.80;;;;;;;13.38;24.23;97819.08;105496;1259;59243;-79
2023/03/08 10:16:31;;;;;;;7.60;1.80;;;;;;;14.11;23.25;97820.84;105395;1260;60196;-80
2023/03/08 10:19:26;;;;;;;6.50;1.50;;;;;;;14.76;22.31;97822.98;105551;1260;71587;-79
2023/03/08 10:22:29;;;;;;;6.90;1.50;;;;;;;14.96;21.33;97827.20;105453;1262;67608;-78
2023/03/08 10:25:30;;;;;;;6.00;1.50;;;;;;;14.63;20.83;97825.06;105643;1262;71057;-77
2023/03/08 10:28:22;;;;;;;5.80;1.50;;;;;;;14.44;21.64;97829.95;105683;1262;59413;-78
2023/03/08 10:31:29;;;;;;;5.60;1.20;;;;;;;15.44;20.56;97832.64;105391;1260;59257;-78
2023/03/08 10:34:28;;;;;;;6.10;1.60;;;;;;;15.99;20.35;97837.45;105401;1262;69163;-80
2023/03/08 10:37:21;;;;;;;7.40;1.60;;;;;;;16.41;20.56;97836.86;105570;1257;66384;-80
2023/03/08 10:40:19;;;;;;;6.50;1.70;;;;;;;16.99;19.68;97835.92;105468;1258;72835;-79
2023/03/08 10:43:25;;;;;;;4.90;1.10;;;;;;;17.47;19.30;97843.74;105789;1262;59361;-79
2023/03/08 10:46:18;;;;;;;6.40;1.50;;;;;;;17.76;18.84;97847.20;105437;1260;60325;-79
2023/03/08 10:49:14;;;;;;;6.40;2.20;;;;;;;17.50;18.35;97843.30;105447;1258;70135;-79
2023/03/08 10:52:03;;;;;;;6.40;1.40;;;;;;;17.71;18.65;97841.40;105649;1260;66767;-77
2023/03/08 10:55:09;;;;;;;5.70;1.60;;;;;;;18.08;18.23;97839.95;105632;1256;72822;-75
2023/03/08 10:58:01;;;;;;;9.10;1.50;;;;;;;18.46;17.79;97842.00;105719;1256;59289;-77
2023/03/08 11:00:54;;;;;;;4.80;1.20;;;;;;;18.64;16.90;97841.10;105761;1256;60402;-77
2023/03/08 11:03:43;;;;;;;5.20;1.20;;;;;;;18.81;16.81;97846.48;105580;1261;70377;-78
2023/03/08 11:06:36;;;;;;;5.60;1.30;;;;;;;18.91;17.26;97847.86;105538;1256;69429;-78
2023/03/08 11:09:32;;;;;;;6.50;1.20;;;;;;;19.51;16.20;97851.77;105454;1261;72504;-76
2023/03/08 11:12:25;;;;;;;6.40;1.60;;;;;;;19.41;15.39;97854.91;105500;1260;59240;-77
2023/03/08 11:15:16;;;;;;;6.30;1.60;;;;;;;18.89;15.22;97849.08;105483;1256;59627;-81
2023/03/08 11:18:59;;;;;;;5.60;1.30;;;;;;;18.28;15.26;97862.52;105556;1262;70177;-78
2023/03/08 11:21:53;;;;;;;5.90;1.50;;;;;;;17.59;15.90;97865.80;106015;1260;68052;-79
2023/03/08 11:25:09;;;;;;;5.30;1.30;;;;;;;16.83;16.46;97863.91;105785;1256;74269;-79
2023/03/08 11:35:51;;;;;;;6.50;1.30;;;;;;;15.27;17.61;97876.52;102421;1292;614862;-79
2023/03/08 11:38:38;;;;;;;7.50;1.60;;;;;;;14.89;18.00;97877.61;105130;1266;59366;-80
2023/03/08 11:41:46;;;;;;;5.30;1.20;;;;;;;14.57;17.83;97881.82;105835;1261;59363;-77
2023/03/08 11:45:32;;;;;;;5.90;1.20;;;;;;;13.09;19.21;97895.73;105711;1257;70605;-77
2023/03/08 11:48:37;;;;;;;6.10;1.60;;;;;;;12.03;20.65;97905.00;103157;1266;3159308;-80
2023/03/08 11:51:55;;;;;;;5.60;1.50;;;;;;;11.59;21.96;97904.23;105066;1267;72507;-78
2023/03/08 11:55:04;;;;;;;7.90;1.70;;;;;;;11.01;22.26;97908.38;104362;1268;1002938;-78
2023/03/08 11:58:08;;;;;;;6.40;1.90;;;;;;;9.76;23.25;97907.48;105001;1268;59324;-77
2023/03/08 12:01:01;;;;;;;7.30;1.70;;;;;;;9.09;24.28;97914.53;105350;1270;72030;-80
2023/03/08 12:03:58;;;;;;;6.30;1.70;;;;;;;8.96;24.64;97918.17;104995;1269;69641;-79
2023/03/08 12:06:46;;;;;;;7.30;1.80;;;;;;;8.20;25.57;97919.05;105276;1269;72375;-77
2023/03/08 12:09:44;;;;;;;8.10;1.90;;;;;;;8.29;26.09;97924.73;105461;1268;59324;-77
2023/03/08 12:12:51;;;;;;;6.00;1.80;;;;;;;8.14;26.48;97923.95;105448;1268;60092;-79
2023/03/08 12:15:50;;;;;;;6.80;2.00;;;;;;;8.30;26.85;97939.13;105239;1266;72960;-80
2023/03/08 12:19:18;;;;;;;5.90;1.50;;;;;;;8.61;27.15;97926.98;105106;1270;65386;-77
2023/03/08 12:22:34;;;;;;;7.30;1.80;;;;;;;8.81;27.41;97923.84;105197;1268;71207;-79
2023/03/08 12:25:26;;;;;;;7.10;1.60;;;;;;;9.11;26.79;97925.92;105743;1262;59342;-79
2023/03/08 12:28:50;;;;;;;6.30;1.20;;;;;;;9.26;26.15;97921.25;105647;1258;59349;-80
2023/03/08 12:31:44;;;;;;;7.50;1.60;;;;;;;9.39;26.34;97918.81;105903;1256;70046;-80
2023/03/08 12:34:44;;;;;;;6.20;1.70;;;;;;;9.42;26.17;97923.39;106351;1252;67850;-78
2023/03/08 12:37:32;;;;;;;6.30;1.80;;;;;;;9.22;26.20;97924.15;106161;1257;72526;-80
2023/03/08 12:40:30;;;;;;;5.00;1.40;;;;;;;8.99;26.09;97924.58;106366;1252;59151;-79
2023/03/08 12:43:19;;;;;;;5.60;1.50;;;;;;;8.50;26.08;97931.23;106294;1256;59249;-83
2023/03/08 12:46:10;;;;;;;8.00;1.40;;;;;;;7.82;26.80;97940.74;105914;1253;70401;-79
2023/03/08 12:48:57;;;;;;;5.80;1.60;;;;;;;7.37;28.01;97941.08;105913;1254;68823;-79
2023/03/08 12:52:18;;;;;;;6.00;1.70;;;;;;;7.05;29.01;97941.16;106182;1256;71433;-79
2023/03/08 12:55:30;;;;;;;7.70;1.60;;;;;;;6.65;29.79;97944.49;106147;1254;59240;-78
2023/03/08 12:58:16;;;;;;;6.10;1.30;;;;;;;6.49;30.09;97948.23;105809;1255;60169;-80
2023/03/08 13:01:21;;;;;;;4.90;1.30;;;;;;;6.28;29.94;97950.41;105999;1256;69620;-79
2023/03/08 13:04:36;;;;;;;6.30;1.80;;;;;;;6.15;30.76;97952.82;106210;1256;67425;-79
2023/03/08 13:07:46;;;;;;;6.40;1.60;;;;;;;6.16;31.44;97958.70;106074;1255;72642;-78
2023/03/08 13:10:52;;;;;;;4.60;1.20;;;;;;;6.09;31.48;97958.85;106315;1254;59224;-78
2023/03/08 13:13:57;;;;;;;6.40;1.50;;;;;;;5.95;31.46;97964.84;106544;1257;61922;-80
2023/03/08 13:16:44;;;;;;;5.60;1.50;;;;;;;5.76;31.05;97962.91;106112;1254;70089;-80
2023/03/08 13:19:31;;;;;;;6.60;1.50;;;;;;;5.68;31.48;97964.00;106054;1257;67620;-79
2023/03/08 13:22:37;;;;;;;6.20;1.60;;;;;;;5.48;31.51;97965.94;105878;1257;71230;-79
2023/03/08 13:25:34;;;;;;;5.10;1.50;;;;;;;5.15;33.58;97967.84;105732;1257;59283;-79
2023/03/08 13:28:25;;;;;;;6.60;1.40;;;;;;;4.83;33.91;97966.91;105448;1254;1002948;-79
2023/03/08 13:31:31;;;;;;;8.00;2.10;;;;;;;4.45;33.53;97972.67;106104;1260;71374;-78
2023/03/08 13:34:31;;;;;;;8.10;2.50;;;;;;;4.20;33.42;97977.79;106019;1254;66599;-78
2023/03/08 13:37:28;;;;;;;7.80;2.30;;;;;;;3.91;33.77;97983.98;105893;1253;72535;-79
2023/03/08 13:40:19;;;;;;;7.90;2.50;;;;;;;3.54;34.23;97983.90;105079;1259;1002805;-79
2023/03/08 13:43:07;;;;;;;10.50;3.40;;;;;;;3.20;34.90;97988.73;106023;1257;59644;-79
2023/03/08 13:45:59;;;;;;;10.80;3.00;;;;;;;2.94;35.13;97986.13;105341;1254;1002641;-79
2023/03/08 13:48:46;;;;;;;8.60;2.90;;;;;;;2.71;35.67;97992.10;106163;1256;66276;-78
2023/03/08 13:51:33;;;;;;;8.90;2.50;;;;;;;2.55;35.97;97993.69;105886;1256;72488;-80
2023/03/08 13:54:34;;;;;;;8.00;2.10;;;;;;;2.39;36.57;97990.91;106092;1259;59237;-80
2023/03/08 13:57:35;;;;;;;6.40;1.50;;;;;;;2.31;36.68;97995.84;106096;1257;59166;-78
2023/03/08 14:00:34;;;;;;;6.10;1.70;;;;;;;2.29;37.17;97997.75;105788;1254;69132;-78
2023/03/08 14:03:21;;;;;;;5.80;1.50;;;;;;;2.30;37.48;98001.08;106388;1253;67996;-78
2023/03/08 14:06:21;;;;;;;7.00;1.90;;;;;;;2.28;37.77;98001.71;106273;1260;72516;-80
2023/03/08 14:09:09;;;;;;;8.40;1.80;;;;;;;2.25;38.26;98006.84;105715;1260;59589;-77
2023/03/08 14:12:06;;;;;;;6.10;1.80;;;;;;;2.16;38.31;98005.06;105194;1257;1002924;-78
2023/03/08 14:15:03;;;;;;;7.10;1.80;;;;;;;2.14;38.87;98004.89;105773;1254;71265;-79
2023/03/08 14:17:51;;;;;;;7.40;1.70;;;;;;;2.12;39.14;98006.92;105390;1256;1003630;-81
2023/03/08 14:20:38;;;;;;;6.20;1.80;;;;;;;2.05;39.44;98003.26;105882;1256;71157;-81
2023/03/08 14:23:25;;;;;;;8.00;2.10;;;;;;;1.97;39.66;98007.16;105623;1260;59385;-78
2023/03/08 14:26:56;;;;;;;9.70;2.70;;;;;;;1.93;39.96;98008.02;105824;1267;60163;-79
2023/03/08 14:29:44;;;;;;;8.20;2.70;;;;;;;1.86;39.96;98008.86;105576;1265;73006;-79
2023/03/08 14:32:34;;;;;;;9.40;2.70;;;;;;;1.83;40.29;98006.77;104765;1266;1003594;-77
2023/03/08 14:35:26;;;;;;;9.10;2.80;;;;;;;1.75;40.58;98005.81;105177;1266;72653;-72
2023/03/08 14:38:23;;;;;;;9.70;2.60;;;;;;;1.69;40.96;98006.79;105523;1264;59344;-71
2023/03/08 14:41:14;;;;;;;9.70;2.70;;;;;;;1.62;41.15;98006.31;105163;1267;59313;-73
2023/03/08 14:44:03;;;;;;;10.30;3.40;;;;;;;1.57;41.66;98007.35;104628;1265;1002622;-73
2023/03/08 14:46:57;;;;;;;9.20;3.00;;;;;;;1.52;41.58;98006.50;104273;1260;1002854;-72
2023/03/08 14:49:54;;;;;;;9.40;3.10;;;;;;;1.41;41.96;98002.55;105503;1265;73045;-78
2023/03/08 14:52:48;;;;;;;11.40;2.80;;;;;;;1.30;41.99;98002.46;105477;1261;59405;-80
2023/03/08 14:55:37;;;;;;;9.30;2.70;;;;;;;1.18;42.46;98004.23;105460;1267;61792;-80
2023/03/08 14:58:29;;;;;;;10.60;2.70;;;;;;;1.05;42.57;98003.38;105141;1261;70306;-80
2023/03/08 15:01:31;;;;;;;9.20;2.80;;;;;;;0.97;42.82;98007.09;105433;1261;66903;-78
2023/03/08 15:04:23;;;;;;;11.80;3.00;;;;;;;0.90;43.40;98010.04;105196;1265;71075;-79
2023/03/08 15:07:22;;;;;;;9.50;2.40;;;;;;;0.81;43.61;98008.77;104995;1253;1003056;-80
2023/03/08 15:10:30;;;;;;;7.60;2.30;;;;;;;0.70;43.98;98009.17;106203;1254;60157;-80
2023/03/08 15:13:21;;;;;;;7.60;2.00;;;;;;;0.62;44.38;98011.48;106147;1257;71196;-79
2023/03/08 15:16:09;;;;;;;9.20;2.60;;;;;;;0.56;44.66;98009.27;106213;1257;67590;-79
2023/03/08 15:18:59;;;;;;;9.00;2.70;;;;;;;0.55;45.00;98007.25;106141;1257;72982;-80
2023/03/08 15:21:47;;;;;;;11.40;3.60;;;;;;;0.51;45.23;98020.03;105112;1254;1002867;-79
2023/03/08 15:24:34;;;;;;;10.90;3.80;;;;;;;0.47;45.15;98016.69;106019;1257;60257;-81
2023/03/08 15:27:21;;;;;;;9.10;3.00;;;;;;;0.44;45.64;98012.70;105632;1254;1003260;-77
2023/03/08 15:30:15;;;;;;;8.10;2.70;;;;;;;0.39;45.56;98009.71;105402;1257;1003701;-79
2023/03/08 15:33:02;;;;;;;8.50;2.60;;;;;;;0.34;45.54;98013.92;106266;1257;74075;-79
2023/03/08 15:35:50;;;;;;;10.30;3.20;;;;;;;0.28;45.67;98016.25;106145;1254;59362;-80
2023/03/08 15:38:37;;;;;;;9.80;2.70;;;;;;;0.19;46.12;98025.23;105332;1257;1003575;-80
2023/03/08 15:41:25;;;;;;;8.30;2.20;;;;;;;0.09;46.58;98025.19;106134;1255;71149;-81
2023/03/08 15:44:12;;;;;;;6.60;2.00;;;;;;;-0.00;46.84;98032.91;105984;1257;67953;-80
2023/03/08 15:47:00;;;;;;;8.60;2.20;;;;;;;-0.09;47.26;98032.27;106672;1254;73443;-79
2023/03/08 15:49:50;;;;;;;9.30;2.40;;;;;;;-0.14;47.85;98034.74;107033;1254;59209;-80
2023/03/08 15:52:37;;;;;;;9.10;2.70;;;;;;;-0.17;48.17;98036.30;106223;1252;59282;-80
2023/03/08 15:55:27;;;;;;;9.00;3.40;;;;;;;-0.18;48.23;98042.50;106064;1255;1003867;-80
2023/03/08 15:58:14;;;;;;;14.10;4.80;;;;;;;-0.21;48.66;98035.53;105078;1260;1003724;-78
2023/03/08 16:01:00;;;;;;;10.40;3.60;;;;;;;-0.23;48.98;98037.94;106190;1253;72769;-79
2023/03/08 16:03:56;;;;;;;10.30;3.10;;;;;;;-0.25;49.02;98042.04;106155;1256;59166;-78
2023/03/08 16:06:43;;;;;;;9.60;3.20;;;;;;;-0.29;48.50;98041.27;106133;1259;60677;-80
2023/03/08 16:09:29;;;;;;;10.60;3.20;;;;;;;-0.33;48.71;98041.54;105589;1255;1003732;-78
2023/03/08 16:12:16;;;;;;;10.80;3.60;;;;;;;-0.37;48.33;98047.32;105962;1257;67687;-78
2023/03/08 16:15:04;;;;;;;12.20;3.70;;;;;;;-0.41;48.25;98049.19;106014;1254;73246;-78
2023/03/08 16:17:51;;;;;;;9.60;3.30;;;;;;;-0.44;48.52;98049.58;106372;1254;61035;-79
2023/03/08 16:20:42;;;;;;;9.50;3.10;;;;;;;-0.50;48.92;98047.52;106323;1254;60171;-80
2023/03/08 16:23:29;;;;;;;14.90;3.60;;;;;;;-0.57;49.56;98054.21;105868;1258;69801;-80
2023/03/08 16:26:16;;;;;;;11.30;3.10;;;;;;;-0.63;50.09;98056.53;106005;1256;67791;-79
2023/03/08 16:29:04;;;;;;;11.40;3.40;;;;;;;-0.70;50.29;98059.71;105958;1257;73933;-81
2023/03/08 16:31:51;;;;;;;9.70;2.80;;;;;;;-0.77;50.89;98057.77;106033;1254;59323;-80
2023/03/08 16:34:38;;;;;;;11.50;3.30;;;;;;;-0.87;51.80;98062.23;106144;1254;60069;-78
2023/03/08 16:37:27;;;;;;;10.10;2.90;;;;;;;-0.96;52.10;98068.17;106051;1257;72254;-79
2023/03/08 16:40:14;;;;;;;12.70;4.10;;;;;;;-1.04;52.88;98073.90;106264;1254;68264;-78
2023/03/08 16:43:01;;;;;;;11.90;3.80;;;;;;;-1.16;54.20;98077.58;108017;1254;72335;-78
2023/03/08 16:46:01;;;;;;;11.60;3.70;;;;;;;-1.24;54.55;98086.73;108859;1253;59214;-81
2023/03/08 16:48:53;;;;;;;9.10;3.20;;;;;;;-1.33;55.10;98084.88;109185;1254;58795;-79
2023/03/08 16:51:39;;;;;;;9.90;3.10;;;;;;;-1.41;55.84;98093.52;108909;1252;70777;-77
2023/03/08 16:54:26;;;;;;;10.60;3.90;;;;;;;-1.48;56.35;98097.61;107867;1254;69314;-78
2023/03/08 16:57:15;;;;;;;9.90;3.60;;;;;;;-1.55;57.26;98101.31;106903;1253;71042;-79
2023/03/08 17:00:11;;;;;;;9.70;3.50;;;;;;;-1.62;57.81;98104.33;106431;1257;59874;-79
2023/03/08 17:02:57;;;;;;;13.20;4.30;;;;;;;-1.69;58.67;98100.73;106381;1253;61878;-78
2023/03/08 17:05:44;;;;;;;10.80;4.10;;;;;;;-1.75;58.47;98098.69;105620;1254;1002917;-78
2023/03/08 17:08:31;;;;;;;12.70;3.90;;;;;;;-1.81;59.13;98102.86;105970;1254;1003047;-78
2023/03/08 17:11:29;;;;;;;11.00;4.10;;;;;;;-1.89;59.95;98103.13;106720;1254;74258;-79
2023/03/08 17:14:16;;;;;;;12.50;4.80;;;;;;;-1.97;60.83;98102.88;106388;1256;59154;-78
2023/03/08 17:17:04;;;;;;;13.90;4.10;;;;;;;-2.04;61.36;98106.25;105307;1254;1003131;-79
2023/03/08 17:19:52;;;;;;;11.40;4.00;;;;;;;-2.11;62.51;98107.67;106090;1251;71177;-77
2023/03/08 17:22:39;;;;;;;11.60;3.60;;;;;;;-2.18;62.74;98114.00;105772;1251;68018;-77
2023/03/08 17:25:26;;;;;;;10.70;3.90;;;;;;;-2.25;63.55;98111.08;105455;1254;1003755;-79
2023/03/08 17:28:14;;;;;;;13.90;4.20;;;;;;;-2.32;64.68;98114.42;105288;1254;1002955;-77
2023/03/08 17:31:10;;;;;;;17.00;4.60;;;;;;;-2.38;64.51;98114.26;105844;1257;59317;-75
2023/03/08 17:33:57;;;;;;;18.50;5.30;;;;;;;-2.45;65.13;98117.91;106411;1251;71900;-78
2023/03/08 17:36:45;;;;;;;25.00;6.80;;;;;;;-2.51;65.79;98117.05;105491;1251;1003233;-79
2023/03/08 17:39:32;;;;;;;24.30;7.20;;;;;;;-2.56;66.34;98118.18;105435;1255;1003399;-77
2023/03/08 17:42:19;;;;;;;31.80;9.40;;;;;;;-2.62;66.76;98120.95;105162;1251;1003783;-78
2023/03/08 17:45:07;;;;;;;31.50;9.70;;;;;;;-2.67;67.14;98123.64;106141;1256;60649;-76
2023/03/08 17:47:59;;;;;;;35.00;10.50;;;;;;;-2.73;67.28;98126.20;106114;1251;70930;-77
2023/03/08 17:50:46;;;;;;;33.90;11.20;;;;;;;-2.78;67.56;98126.33;106444;1253;69481;-77
2023/03/08 17:53:34;;;;;;;20.60;6.50;;;;;;;-2.84;69.49;98130.46;106098;1257;71386;-79
2023/03/08 17:56:27;;;;;;;18.60;5.10;;;;;;;-2.88;69.51;98134.52;105756;1254;59332;-78
2023/03/08 17:59:16;;;;;;;18.00;4.90;;;;;;;-2.93;69.59;98135.64;105917;1256;59221;-78
2023/03/08 18:02:03;;;;;;;15.00;4.70;;;;;;;-2.97;69.94;98134.98;106068;1254;73650;-78
2023/03/08 18:04:50;;;;;;;13.70;4.20;;;;;;;-3.01;71.58;98132.27;106006;1254;69244;-78
2023/03/08 18:07:38;;;;;;;11.30;3.50;;;;;;;-3.06;71.83;98127.83;105573;1253;1003427;-77
2023/03/08 18:10:28;;;;;;;12.70;4.40;;;;;;;-3.11;72.46;98121.67;106183;1252;59858;-79
2023/03/08 18:13:15;;;;;;;14.30;4.40;;;;;;;-3.16;73.23;98120.20;105606;1256;1003528;-79
2023/03/08 18:16:04;;;;;;;16.10;5.00;;;;;;;-3.21;73.71;98132.05;105638;1253;1003641;-78
2023/03/08 18:18:51;;;;;;;18.60;5.30;;;;;;;-3.27;74.06;98126.11;105546;1254;1003135;-78
2023/03/08 18:21:39;;;;;;;16.10;4.70;;;;;;;-3.31;74.39;98126.71;106216;1254;74291;-77
2023/03/08 18:24:27;;;;;;;17.00;5.90;;;;;;;-3.36;75.11;98126.08;108883;1251;1015546;-80
2023/03/08 18:27:14;;;;;;;13.00;4.70;;;;;;;-3.40;75.39;98121.44;109646;1251;58682;-78
2023/03/08 18:30:01;;;;;;;13.90;4.80;;;;;;;-3.44;76.17;98123.86;109608;1251;71182;-77
2023/03/08 18:32:49;;;;;;;17.40;4.80;;;;;;;-3.47;76.33;98124.02;108866;1251;1002464;-78
2023/03/08 18:35:35;;;;;;;15.00;4.80;;;;;;;-3.49;76.69;98123.79;109676;1251;73737;-77
2023/03/08 18:38:23;;;;;;;18.80;7.00;;;;;;;-3.52;76.66;98116.84;108815;1251;1002250;-75
2023/03/08 18:41:26;;;;;;;24.80;8.00;;;;;;;-3.54;76.66;98117.52;108931;1251;1015451;-78
2023/03/08 18:44:12;;;;;;;29.40;8.80;;;;;;;-3.58;77.02;98118.34;109678;1251;72119;-77
2023/03/08 18:46:59;;;;;;;36.00;12.10;;;;;;;-3.60;77.32;98114.29;109698;1250;67602;-76
2023/03/08 18:49:46;;;;;;;41.30;12.40;;;;;;;-3.62;77.50;98117.67;109604;1251;72499;-77
2023/03/08 18:52:34;;;;;;;33.50;10.60;;;;;;;-3.65;77.72;98110.73;109575;1251;57870;-76
2023/03/08 18:55:20;;;;;;;30.20;10.50;;;;;;;-3.67;77.56;98111.72;109604;1251;60166;-77
2023/03/08 18:58:07;;;;;;;28.50;9.50;;;;;;;-3.70;78.22;98115.86;109602;1251;72912;-79
2023/03/08 19:00:57;;;;;;;22.60;8.90;;;;;;;-3.74;78.81;98112.03;109713;1250;67767;-76
2023/03/08 19:03:46;;;;;;;23.80;8.50;;;;;;;-3.74;79.26;98108.78;109688;1250;73434;-76
2023/03/08 19:06:36;;;;;;;23.10;7.50;;;;;;;-3.72;79.19;98111.46;108934;1250;1014991;-77
2023/03/08 19:09:23;;;;;;;18.80;7.50;;;;;;;-3.69;79.63;98106.75;109732;1250;59619;-78
2023/03/08 19:12:10;;;;;;;20.70;7.70;;;;;;;-3.64;79.70;98104.77;109499;1251;72361;-77
2023/03/08 19:14:56;;;;;;;24.30;8.20;;;;;;;-3.60;79.62;98102.67;109787;1250;66334;-78
2023/03/08 19:17:43;;;;;;;25.40;8.40;;;;;;;-3.57;79.82;98104.08;109720;1250;72688;-77
2023/03/08 19:20:34;;;;;;;22.50;8.20;;;;;;;-3.55;79.39;98104.52;109761;1250;56945;-79
2023/03/08 19:23:21;;;;;;;22.00;8.00;;;;;;;-3.57;79.32;98104.29;109448;1251;59821;-77
2023/03/08 19:29:27;;;;;;;26.80;9.20;;;;;;;-3.65;79.69;98103.09;109612;1251;66590;-78
2023/03/08 19:32:17;;;;;;;28.30;9.70;;;;;;;-3.71;80.09;98100.61;109594;1251;72757;-77
2023/03/08 19:35:06;;;;;;;27.90;10.10;;;;;;;-3.75;80.53;98097.70;109505;1251;58898;-79
2023/03/08 19:37:53;;;;;;;23.00;9.00;;;;;;;-3.78;80.39;98099.78;109625;1251;58780;-78
2023/03/08 19:40:44;;;;;;;24.60;8.90;;;;;;;-3.83;80.39;98100.20;109572;1251;72960;-76
2023/03/08 19:43:30;;;;;;;24.70;8.00;;;;;;;-3.87;80.29;98102.96;109628;1251;67770;-77
2023/03/08 19:46:17;;;;;;;23.40;9.00;;;;;;;-3.91;80.62;98101.64;109586;1251;72734;-79
2023/03/08 19:49:07;;;;;;;21.90;8.60;;;;;;;-3.96;80.85;98103.08;109721;1251;58478;-78
2023/03/08 19:51:59;;;;;;;25.90;8.20;;;;;;;-4.00;81.11;98105.35;109787;1251;61096;-79
2023/03/08 19:54:47;;;;;;;20.40;7.70;;;;;;;-4.04;81.68;98106.96;109888;1251;72996;-79
2023/03/08 19:57:35;;;;;;;35.50;11.30;;;;;;;-4.08;81.95;98105.44;109113;1251;1002349;-75
2023/03/08 20:00:22;;;;;;;40.80;14.30;;;;;;;-4.11;81.95;98103.13;109514;1253;71157;-76
2023/03/08 20:03:10;;;;;;;37.60;13.60;;;;;;;-4.10;82.35;98107.09;109710;1251;57549;-75
2023/03/08 20:05:57;;;;;;;31.70;12.20;;;;;;;-4.08;82.46;98108.52;109659;1253;60116;-75
2023/03/08 20:08:44;;;;;;;33.70;12.90;;;;;;;-4.05;82.16;98104.95;109630;1251;71938;-76
2023/03/08 20:11:31;;;;;;;35.00;14.10;;;;;;;-4.04;82.42;98102.27;109491;1251;67822;-75
2023/03/08 20:14:19;;;;;;;35.00;12.50;;;;;;;-4.02;82.34;98108.23;108916;1251;1002436;-76
2023/03/08 20:17:05;;;;;;;33.90;15.30;;;;;;;-4.02;82.15;98105.15;109638;1251;56978;-75
2023/03/08 20:19:52;;;;;;;33.20;12.70;;;;;;;-4.03;82.00;98104.16;108919;1253;1002437;-74
2023/03/08 20:22:41;;;;;;;29.30;11.40;;;;;;;-4.08;82.12;98107.86;109592;1250;72313;-75
2023/03/08 20:25:27;;;;;;;33.70;12.60;;;;;;;-4.14;82.20;98107.93;109606;1251;66483;-75
2023/03/08 20:28:14;;;;;;;35.60;13.60;;;;;;;-4.19;82.16;98110.29;109811;1250;73158;-75
2023/03/08 20:31:11;;;;;;;34.80;13.50;;;;;;;-4.26;82.53;98109.08;108178;1251;1002885;-75
2023/03/08 20:33:57;;;;;;;34.20;12.80;;;;;;;-4.32;82.83;98110.55;109588;1251;60617;-75
2023/03/08 20:36:44;;;;;;;31.30;13.50;;;;;;;-4.36;82.75;98113.73;109756;1250;71940;-75
2023/03/08 20:39:31;;;;;;;41.50;15.50;;;;;;;-4.40;82.83;98112.70;109568;1250;66532;-75
2023/03/08 20:42:19;;;;;;;37.00;14.50;;;;;;;-4.41;82.88;98116.56;109789;1250;71061;-75
2023/03/08 20:45:07;;;;;;;28.10;10.70;;;;;;;-4.41;83.10;98116.38;109654;1251;56955;-76
2023/03/08 20:47:56;;;;;;;25.20;10.60;;;;;;;-4.43;82.97;98116.48;109582;1251;59018;-75
2023/03/08 20:50:44;;;;;;;25.70;9.60;;;;;;;-4.47;82.91;98118.53;109523;1250;70763;-73
2023/03/08 20:53:32;;;;;;;25.90;10.10;;;;;;;-4.51;82.85;98118.21;109785;1250;67842;-74
2023/03/08 20:56:21;;;;;;;29.10;9.10;;;;;;;-4.58;83.02;98114.77;109651;1251;72005;-74
2023/03/08 20:59:08;;;;;;;21.90;8.40;;;;;;;-4.64;82.81;98113.10;109550;1251;57077;-76
2023/03/08 21:01:56;;;;;;;21.60;8.10;;;;;;;-4.71;82.58;98112.74;109001;1250;1002548;-76
2023/03/08 21:04:42;;;;;;;24.50;8.90;;;;;;;-4.77;82.46;98113.23;109703;1251;70563;-75
2023/03/08 21:07:30;;;;;;;41.80;14.10;;;;;;;-4.84;82.54;98113.87;109764;1250;66389;-76
2023/03/08 21:10:17;;;;;;;45.50;16.90;;;;;;;-4.89;82.80;98112.39;109613;1251;72594;-76
2023/03/08 21:13:07;;;;;;;42.40;17.70;;;;;;;-4.93;83.06;98112.55;109621;1251;60411;-76
2023/03/08 21:16:08;;;;;;;31.60;14.40;;;;;;;-4.95;82.82;98110.38;109708;1251;59108;-75
2023/03/08 21:18:58;;;;;;;32.00;13.90;;;;;;;-4.94;83.66;98112.09;109714;1251;72114;-74
2023/03/08 21:21:45;;;;;;;32.90;13.20;;;;;;;-4.94;83.89;98107.08;109691;1251;66375;-75
2023/03/08 21:24:32;;;;;;;31.60;13.30;;;;;;;-4.97;83.82;98108.89;109578;1251;72650;-75
2023/03/08 21:27:19;;;;;;;28.00;12.40;;;;;;;-5.00;83.55;98111.30;109673;1251;56857;-76
2023/03/08 21:30:06;;;;;;;23.80;11.30;;;;;;;-5.04;83.87;98106.15;109604;1251;60190;-76